createdAt,value
2022-11-23T00:01:39.264Z,9.20
2022-11-23T00:06:42.066Z,9.20
2022-11-23T00:16:46.556Z,9.10
2022-11-23T00:21:48.560Z,9.00
2022-11-23T00:26:50.603Z,9.00
2022-11-23T00:31:52.893Z,8.90
2022-11-23T00:41:57.459Z,8.80
2022-11-23T00:46:59.458Z,8.70
2022-11-23T00:52:01.960Z,8.60
2022-11-23T00:57:04.165Z,8.60
2022-11-23T01:02:06.226Z,8.60
2022-11-23T01:07:08.318Z,8.50
2022-11-23T01:17:13.628Z,8.60
2022-11-23T01:22:15.657Z,8.60
2022-11-23T01:27:17.755Z,8.70
2022-11-23T01:32:19.770Z,8.80
2022-11-23T01:37:21.867Z,8.90
2022-11-23T01:42:44.056Z,8.90
2022-11-23T01:47:46.104Z,9.00
2022-11-23T01:52:48.304Z,9.00
2022-11-23T01:57:50.378Z,9.10
2022-11-23T02:02:59.006Z,9.10
2022-11-23T02:08:04.514Z,9.20
2022-11-23T02:13:09.959Z,9.10
2022-11-23T02:18:19.359Z,9.20
2022-11-23T02:23:33.881Z,9.30
2022-11-23T02:28:52.556Z,9.30
2022-11-23T02:39:01.685Z,9.40
2022-11-23T02:44:07.061Z,9.40
2022-11-23T02:54:11.630Z,9.50
2022-11-23T02:59:13.655Z,9.60
2022-11-23T03:04:19.871Z,9.50
2022-11-23T03:09:28.133Z,9.60
2022-11-23T03:14:31.314Z,9.60
2022-11-23T03:19:33.545Z,9.60
2022-11-23T03:29:39.678Z,9.70
2022-11-23T03:39:47.482Z,9.70
2022-11-23T03:44:52.720Z,9.70
2022-11-23T03:49:54.730Z,9.70
2022-11-23T03:54:56.819Z,9.80
2022-11-23T03:59:58.903Z,9.80
2022-11-23T04:05:02.015Z,9.80
2022-11-23T04:10:08.827Z,9.80
2022-11-23T04:20:18.148Z,9.80
2022-11-23T04:25:20.237Z,9.80
2022-11-23T04:30:23.489Z,9.80
2022-11-23T04:40:31.675Z,9.80
2022-11-23T04:45:39.626Z,9.80
2022-11-23T04:50:46.503Z,9.80
2022-11-23T04:55:50.198Z,9.80
2022-11-23T05:00:52.570Z,9.90
2022-11-23T05:05:57.640Z,9.90
2022-11-23T05:11:01.585Z,9.90
2022-11-23T05:16:04.759Z,9.90
2022-11-23T05:21:07.390Z,9.90
2022-11-23T05:26:09.512Z,9.90
2022-11-23T05:31:13.162Z,10.00
2022-11-23T05:41:20.226Z,10.00
2022-11-23T05:46:24.817Z,9.90
2022-11-23T05:51:27.216Z,10.00
2022-11-23T05:56:29.445Z,10.00
2022-11-23T06:01:33.162Z,9.90
2022-11-23T06:11:38.638Z,9.80
2022-11-23T06:16:41.612Z,9.80
2022-11-23T06:21:50.220Z,9.80
2022-11-23T06:26:53.765Z,9.80
2022-11-23T06:31:56.058Z,9.80
2022-11-23T06:42:16.889Z,9.80
2022-11-23T06:47:26.217Z,9.80
2022-11-23T06:52:29.100Z,9.80
2022-11-23T06:57:32.169Z,9.70
2022-11-23T07:02:34.917Z,9.70
2022-11-23T07:12:41.053Z,9.50
2022-11-23T07:17:46.360Z,9.40
2022-11-23T07:27:56.363Z,9.30
2022-11-23T07:38:09.094Z,9.10
2022-11-23T07:43:11.487Z,9.10
2022-11-23T07:48:13.664Z,9.10
2022-11-23T07:53:15.765Z,9.10
2022-11-23T07:58:18.626Z,9.10
2022-11-23T08:03:29.074Z,9.20
2022-11-23T08:08:31.741Z,9.20
2022-11-23T08:13:37.293Z,9.30
2022-11-23T08:18:39.362Z,9.30
2022-11-23T08:23:41.407Z,9.40
2022-11-23T08:28:43.538Z,9.50
2022-11-23T08:33:45.627Z,9.60
2022-11-23T08:38:51.235Z,9.70
2022-11-23T08:43:53.305Z,9.70
2022-11-23T08:48:55.478Z,9.80
2022-11-23T08:53:57.604Z,9.90
2022-11-23T08:58:59.699Z,10.00
2022-11-23T09:04:04.559Z,10.10
2022-11-23T09:09:06.601Z,10.10
2022-11-23T09:14:08.757Z,9.60
2022-11-23T09:19:13.751Z,10.30
2022-11-23T09:24:15.894Z,10.40
2022-11-23T09:29:17.983Z,10.50
2022-11-23T09:34:20.145Z,10.60
2022-11-23T09:39:22.235Z,10.80
2022-11-23T09:44:39.126Z,10.90
2022-11-23T09:49:57.866Z,11.00
2022-11-23T09:55:22.138Z,11.10
2022-11-23T10:00:24.446Z,11.20
2022-11-23T10:05:32.488Z,11.30
2022-11-23T10:10:44.374Z,11.40
2022-11-23T10:16:41.842Z,11.50
2022-11-23T10:21:43.922Z,11.60
2022-11-23T10:26:49.701Z,11.70
2022-11-23T10:31:56.826Z,11.80
2022-11-23T10:36:59.505Z,11.90
2022-11-23T10:42:09.434Z,11.90
2022-11-23T10:47:11.538Z,12.10
2022-11-23T10:52:31.486Z,12.10
2022-11-23T10:57:45.443Z,12.20
2022-11-23T11:02:49.845Z,12.30
2022-11-23T11:07:54.119Z,12.50
2022-11-23T11:12:56.237Z,12.60
2022-11-23T11:17:59.620Z,12.80
2022-11-23T11:23:17.868Z,13.20
2022-11-23T11:28:35.198Z,13.20
2022-11-23T11:33:46.700Z,13.40
2022-11-23T11:39:15.029Z,13.60
2022-11-23T11:44:21.662Z,13.70
2022-11-23T11:49:31.334Z,13.90
2022-11-23T11:54:44.406Z,14.10
2022-11-23T11:59:52.869Z,14.30
2022-11-23T12:05:04.926Z,14.50
2022-11-23T12:10:10.904Z,14.60
2022-11-23T12:15:49.087Z,14.70
2022-11-23T12:21:05.359Z,14.70
2022-11-23T12:26:23.811Z,14.90
2022-11-23T12:31:45.825Z,15.00
2022-11-23T12:37:00.835Z,15.10
2022-11-23T12:42:14.486Z,15.30
2022-11-23T12:47:37.716Z,15.40
2022-11-23T12:53:05.632Z,15.60
2022-11-23T12:58:22.364Z,15.60
2022-11-23T13:03:43.023Z,15.70
2022-11-23T13:09:00.120Z,15.80
2022-11-23T13:14:39.934Z,15.90
2022-11-23T13:20:11.682Z,16.00
2022-11-23T13:25:13.776Z,16.10
2022-11-23T13:30:45.523Z,16.20
2022-11-23T13:35:55.292Z,16.30
2022-11-23T13:40:57.411Z,16.80
2022-11-23T13:46:22.289Z,16.60
2022-11-23T13:51:35.068Z,16.60
2022-11-23T13:56:41.038Z,16.60
2022-11-23T14:02:07.436Z,16.60
2022-11-23T14:07:17.629Z,16.50
2022-11-23T14:12:37.364Z,16.40
2022-11-23T14:17:51.497Z,16.20
2022-11-23T14:22:58.967Z,16.10
2022-11-23T14:33:24.330Z,15.40
2022-11-23T14:43:47.785Z,14.90
2022-11-23T14:48:49.875Z,14.80
2022-11-23T14:54:00.195Z,14.60
2022-11-23T14:59:28.434Z,14.30
2022-11-23T15:04:38.675Z,14.20
2022-11-23T15:10:10.863Z,14.00
2022-11-23T15:15:19.371Z,13.80
2022-11-23T15:20:23.418Z,13.70
2022-11-23T15:25:25.648Z,13.60
2022-11-23T15:30:30.594Z,13.60
2022-11-23T15:35:38.683Z,13.50
2022-11-23T15:40:50.969Z,13.50
2022-11-23T15:45:52.997Z,13.30
2022-11-23T15:51:00.846Z,13.30
2022-11-23T15:56:05.843Z,13.20
2022-11-23T16:01:13.253Z,13.20
2022-11-23T16:06:39.539Z,13.20
2022-11-23T16:11:45.096Z,13.10
2022-11-23T16:16:58.270Z,13.10
2022-11-23T16:22:05.276Z,13.00
2022-11-23T16:27:14.733Z,13.00
2022-11-23T16:32:31.354Z,12.80
2022-11-23T16:37:33.449Z,12.80
2022-11-23T16:42:35.552Z,12.80
2022-11-23T16:47:55.120Z,12.70
2022-11-23T16:53:00.808Z,12.70
2022-11-23T16:58:05.406Z,12.60
2022-11-23T17:03:14.365Z,12.60
2022-11-23T17:08:23.055Z,12.60
2022-11-23T17:13:28.841Z,12.50
2022-11-23T17:18:30.900Z,12.50
2022-11-23T17:23:33.447Z,12.40
2022-11-23T17:28:35.598Z,12.30
2022-11-23T17:33:38.788Z,12.30
2022-11-23T17:38:46.524Z,12.30
2022-11-23T17:43:48.722Z,12.20
2022-11-23T17:49:02.564Z,12.20
2022-11-23T17:54:04.846Z,12.20
2022-11-23T17:59:07.092Z,12.10
2022-11-23T18:04:09.334Z,12.10
2022-11-23T18:09:12.222Z,12.10
2022-11-23T18:14:14.497Z,12.10
2022-11-23T18:19:16.643Z,12.10
2022-11-23T18:24:19.018Z,12.00
2022-11-23T18:29:21.172Z,11.90
2022-11-23T18:34:23.277Z,11.90
2022-11-23T18:39:25.403Z,11.80
2022-11-23T18:44:27.536Z,11.80
2022-11-23T18:49:29.731Z,11.80
2022-11-23T18:54:31.839Z,11.80
2022-11-23T19:00:04.013Z,11.70
2022-11-23T19:04:55.998Z,11.70
2022-11-23T19:09:58.076Z,11.70
2022-11-23T19:15:00.247Z,11.60
2022-11-23T19:20:03.581Z,11.60
2022-11-23T19:25:06.141Z,11.60
2022-11-23T19:30:09.060Z,11.70
2022-11-23T19:35:11.206Z,11.60
2022-11-23T19:40:13.439Z,11.60
2022-11-23T19:45:15.596Z,11.60
2022-11-23T19:50:17.762Z,11.40
2022-11-23T19:55:19.857Z,11.60
2022-11-23T20:00:21.993Z,11.60
2022-11-23T20:05:24.183Z,11.60
2022-11-23T20:10:26.292Z,11.60
2022-11-23T20:15:28.373Z,11.50
2022-11-23T20:20:31.856Z,11.50
2022-11-23T20:25:37.908Z,11.40
2022-11-23T20:30:42.222Z,11.40
2022-11-23T20:35:44.697Z,11.30
2022-11-23T20:40:46.791Z,11.30
2022-11-23T20:45:48.847Z,11.20
2022-11-23T20:50:51.141Z,11.20
2022-11-23T20:55:53.298Z,11.20
2022-11-23T21:00:55.477Z,11.20
2022-11-23T21:05:57.830Z,11.10
2022-11-23T21:11:32.765Z,11.10
2022-11-23T21:16:45.573Z,11.00
2022-11-23T21:21:47.664Z,10.80
2022-11-23T21:26:50.117Z,10.70
2022-11-23T21:31:52.310Z,10.60
2022-11-23T21:36:55.742Z,10.60
2022-11-23T21:41:57.916Z,10.60
2022-11-23T21:47:00.139Z,10.60
2022-11-23T21:52:02.770Z,10.60
2022-11-23T21:57:04.960Z,10.60
2022-11-23T22:02:11.715Z,10.70
2022-11-23T22:07:14.010Z,10.80
2022-11-23T22:12:16.152Z,11.00
2022-11-23T22:17:18.281Z,11.10
2022-11-23T22:22:20.367Z,11.00
2022-11-23T22:27:22.462Z,11.30
2022-11-23T22:32:24.545Z,11.40
2022-11-23T22:37:26.611Z,11.40
2022-11-23T22:42:28.829Z,11.50
2022-11-23T22:47:30.877Z,11.60
2022-11-23T22:52:32.915Z,11.70
2022-11-23T22:57:35.063Z,11.80
2022-11-23T23:07:40.201Z,11.80
2022-11-23T23:12:42.400Z,11.70
2022-11-23T23:22:46.966Z,11.80
2022-11-23T23:27:49.020Z,11.70
2022-11-23T23:32:53.456Z,11.70
2022-11-23T23:37:55.476Z,11.70
2022-11-23T23:43:00.440Z,11.80
2022-11-23T23:48:02.488Z,11.80
2022-11-23T23:53:04.547Z,11.80
2022-11-23T23:58:06.634Z,11.90
